sensor_id;sensor_type;location;lat;lon;timestamp;pressure;altitude;pressure_sealevel;temperature;humidity
29331;BME280;16331;52.528;13.342;2023-01-30T00:01:35;156521.81;;;2.89;100.00
29331;BME280;16331;52.528;13.342;2023-01-30T00:04:11;156536.78;;;2.94;100.00
29331;BME280;16331;52.528;13.342;2023-01-30T00:06:42;156495.94;;;2.79;100.00
29331;BME280;16331;52.528;13.342;2023-01-30T00:09:20;156471.47;;;2.70;100.00
29331;BME280;16331;52.528;13.342;2023-01-30T00:11:46;156487.78;;;2.76;100.00
29331;BME280;16331;52.528;13.342;2023-01-30T00:14:12;156515.03;;;2.86;100.00
29331;BME280;16331;52.528;13.342;2023-01-30T00:16:39;156530.00;;;2.92;100.00
29331;BME280;16331;52.528;13.342;2023-01-30T00:19:09;156516.34;;;2.87;100.00
29331;BME280;16331;52.528;13.342;2023-01-30T00:21:36;156516.34;;;2.87;100.00
29331;BME280;16331;52.528;13.342;2023-01-30T00:24:02;156531.38;;;2.92;100.00
29331;BME280;16331;52.528;13.342;2023-01-30T00:26:29;156528.59;;;2.91;100.00
29331;BME280;16331;52.528;13.342;2023-01-30T00:29:03;156547.69;;;2.98;100.00
29331;BME280;16331;52.528;13.342;2023-01-30T00:31:29;156540.91;;;2.96;100.00
29331;BME280;16331;52.528;13.342;2023-01-30T00:33:57;156557.25;;;3.02;100.00
29331;BME280;16331;52.528;13.342;2023-01-30T00:36:23;156520.44;;;2.88;100.00
29331;BME280;16331;52.528;13.342;2023-01-30T00:38:49;156562.69;;;3.04;100.00
29331;BME280;16331;52.528;13.342;2023-01-30T00:41:16;156513.66;;;2.86;100.00
29331;BME280;16331;52.528;13.342;2023-01-30T00:43:43;156530.00;;;2.92;100.00
29331;BME280;16331;52.528;13.342;2023-01-30T00:46:33;156534.06;;;2.93;100.00
29331;BME280;16331;52.528;13.342;2023-01-30T00:49:19;156515.03;;;2.86;100.00
29331;BME280;16331;52.528;13.342;2023-01-30T00:51:46;156501.41;;;2.81;100.00
29331;BME280;16331;52.528;13.342;2023-01-30T00:54:13;156531.38;;;2.92;100.00
29331;BME280;16331;52.528;13.342;2023-01-30T00:56:40;156509.56;;;2.84;100.00
29331;BME280;16331;52.528;13.342;2023-01-30T00:59:06;156525.91;;;2.90;100.00
29331;BME280;16331;52.528;13.342;2023-01-30T01:01:34;156497.31;;;2.80;100.00
29331;BME280;16331;52.528;13.342;2023-01-30T01:04:00;156489.09;;;2.77;100.00
29331;BME280;16331;52.528;13.342;2023-01-30T01:06:30;156486.41;;;2.76;100.00
29331;BME280;16331;52.528;13.342;2023-01-30T01:08:56;156517.75;;;2.87;100.00
29331;BME280;16331;52.528;13.342;2023-01-30T01:11:27;156521.81;;;2.89;100.00
29331;BME280;16331;52.528;13.342;2023-01-30T01:14:08;156510.91;;;2.85;100.00
29331;BME280;16331;52.528;13.342;2023-01-30T01:16:39;156535.44;;;2.94;100.00
29331;BME280;16331;52.528;13.342;2023-01-30T01:19:05;156500.03;;;2.81;100.00
29331;BME280;16331;52.528;13.342;2023-01-30T01:21:32;156504.13;;;2.82;100.00
29331;BME280;16331;52.528;13.342;2023-01-30T01:23:59;156487.78;;;2.76;100.00
29331;BME280;16331;52.528;13.342;2023-01-30T01:26:27;156493.25;;;2.78;100.00
29331;BME280;16331;52.528;13.342;2023-01-30T01:28:57;156509.56;;;2.84;100.00
29331;BME280;16331;52.528;13.342;2023-01-30T01:31:24;156520.44;;;2.88;100.00
29331;BME280;16331;52.528;13.342;2023-01-30T01:33:53;156534.06;;;2.93;100.00
29331;BME280;16331;52.528;13.342;2023-01-30T01:36:19;156540.91;;;2.96;100.00
29331;BME280;16331;52.528;13.342;2023-01-30T01:38:45;156501.41;;;2.81;100.00
29331;BME280;16331;52.528;13.342;2023-01-30T01:41:13;156515.03;;;2.86;100.00
29331;BME280;16331;52.528;13.342;2023-01-30T01:44:09;156543.63;;;2.97;100.00
29331;BME280;16331;52.528;13.342;2023-01-30T01:46:51;156569.50;;;3.07;100.00
29331;BME280;16331;52.528;13.342;2023-01-30T01:49:28;156574.94;;;3.09;100.00
29331;BME280;16331;52.528;13.342;2023-01-30T01:52:09;156573.56;;;3.08;100.00
29331;BME280;16331;52.528;13.342;2023-01-30T01:54:47;156534.06;;;2.93;100.00
29331;BME280;16331;52.528;13.342;2023-01-30T01:57:19;156525.91;;;2.90;100.00
29331;BME280;16331;52.528;13.342;2023-01-30T01:59:56;156539.53;;;2.95;100.00
29331;BME280;16331;52.528;13.342;2023-01-30T02:02:27;156478.25;;;2.73;100.00
29331;BME280;16331;52.528;13.342;2023-01-30T02:04:56;156451.00;;;2.63;100.00
29331;BME280;16331;52.528;13.342;2023-01-30T02:07:51;156449.66;;;2.62;100.00
29331;BME280;16331;52.528;13.342;2023-01-30T02:10:40;156422.41;;;2.52;100.00
29331;BME280;16331;52.528;13.342;2023-01-30T02:13:10;156430.59;;;2.55;100.00
29331;BME280;16331;52.528;13.342;2023-01-30T02:15:36;156414.25;;;2.49;100.00
29331;BME280;16331;52.528;13.342;2023-01-30T02:18:03;156407.44;;;2.47;100.00
29331;BME280;16331;52.528;13.342;2023-01-30T02:23:07;156403.34;;;2.45;100.00
29331;BME280;16331;52.528;13.342;2023-01-30T02:31:37;156468.69;;;2.69;100.00
29331;BME280;16331;52.528;13.342;2023-01-30T02:37:15;156480.94;;;2.74;100.00
29331;BME280;16331;52.528;13.342;2023-01-30T02:42:55;156440.13;;;2.59;100.00
29331;BME280;16331;52.528;13.342;2023-01-30T02:48:45;156381.56;;;2.37;100.00
29331;BME280;16331;52.528;13.342;2023-01-30T02:51:36;156365.25;;;2.31;100.00
29331;BME280;16331;52.528;13.342;2023-01-30T02:54:05;156410.19;;;2.48;100.00
29331;BME280;16331;52.528;13.342;2023-01-30T02:59:09;156408.81;;;2.47;100.00
29331;BME280;16331;52.528;13.342;2023-01-30T03:02:00;156425.13;;;2.53;100.00
29331;BME280;16331;52.528;13.342;2023-01-30T03:08:11;156411.50;;;2.48;100.00
29331;BME280;16331;52.528;13.342;2023-01-30T03:10:54;156396.56;;;2.43;100.00
29331;BME280;16331;52.528;13.342;2023-01-30T03:18:34;156448.28;;;2.62;100.00
29331;BME280;16331;52.528;13.342;2023-01-30T03:21:05;156471.47;;;2.70;100.00
29331;BME280;16331;52.528;13.342;2023-01-30T03:23:32;156485.03;;;2.75;100.00
29331;BME280;16331;52.528;13.342;2023-01-30T03:26:04;156470.06;;;2.70;100.00
29331;BME280;16331;52.528;13.342;2023-01-30T03:28:32;156509.56;;;2.84;100.00
29331;BME280;16331;52.528;13.342;2023-01-30T03:30:59;156532.69;;;2.93;100.00
29331;BME280;16331;52.528;13.342;2023-01-30T03:33:27;156500.03;;;2.81;100.00
29331;BME280;16331;52.528;13.342;2023-01-30T03:35:55;156504.13;;;2.82;100.00
29331;BME280;16331;52.528;13.342;2023-01-30T03:38:21;156521.81;;;2.89;100.00
29331;BME280;16331;52.528;13.342;2023-01-30T03:40:48;156554.47;;;3.01;100.00
29331;BME280;16331;52.528;13.342;2023-01-30T03:43:15;156570.88;;;3.07;100.00
29331;BME280;16331;52.528;13.342;2023-01-30T03:45:41;156553.16;;;3.01;100.00
29331;BME280;16331;52.528;13.342;2023-01-30T03:48:07;156536.78;;;2.94;100.00
29331;BME280;16331;52.528;13.342;2023-01-30T03:50:33;156536.78;;;2.94;100.00
29331;BME280;16331;52.528;13.342;2023-01-30T03:53:00;156542.22;;;2.96;100.00
29331;BME280;16331;52.528;13.342;2023-01-30T03:55:26;156516.34;;;2.87;100.00
29331;BME280;16331;52.528;13.342;2023-01-30T03:57:57;156519.13;;;2.88;100.00
29331;BME280;16331;52.528;13.342;2023-01-30T04:00:23;156539.53;;;2.95;100.00
29331;BME280;16331;52.528;13.342;2023-01-30T04:02:49;156536.78;;;2.94;100.00
29331;BME280;16331;52.528;13.342;2023-01-30T04:05:16;156550.41;;;2.99;100.00
29331;BME280;16331;52.528;13.342;2023-01-30T04:07:44;156555.84;;;3.02;100.00
29331;BME280;16331;52.528;13.342;2023-01-30T04:10:10;156569.50;;;3.07;100.00
29331;BME280;16331;52.528;13.342;2023-01-30T04:12:41;156580.38;;;3.11;100.00
29331;BME280;16331;52.528;13.342;2023-01-30T04:15:08;156607.63;;;3.21;100.00
29331;BME280;16331;52.528;13.342;2023-01-30T04:17:35;156664.84;;;3.42;100.00
29331;BME280;16331;52.528;13.342;2023-01-30T04:20:02;156664.84;;;3.42;100.00
29331;BME280;16331;52.528;13.342;2023-01-30T04:22:28;156638.97;;;3.32;100.00
29331;BME280;16331;52.528;13.342;2023-01-30T04:24:55;156634.88;;;3.31;100.00
29331;BME280;16331;52.528;13.342;2023-01-30T04:27:21;156662.16;;;3.41;100.00
29331;BME280;16331;52.528;13.342;2023-01-30T04:29:47;156673.03;;;3.45;100.00
29331;BME280;16331;52.528;13.342;2023-01-30T04:32:13;156667.56;;;3.43;100.00
29331;BME280;16331;52.528;13.342;2023-01-30T04:34:42;156673.03;;;3.45;100.00
29331;BME280;16331;52.528;13.342;2023-01-30T04:37:16;156709.84;;;3.58;100.00
29331;BME280;16331;52.528;13.342;2023-01-30T04:39:45;156719.34;;;3.62;100.00
29331;BME280;16331;52.528;13.342;2023-01-30T04:42:11;156748.00;;;3.72;100.00
29331;BME280;16331;52.528;13.342;2023-01-30T04:44:37;156711.19;;;3.59;100.00
29331;BME280;16331;52.528;13.342;2023-01-30T04:47:03;156700.28;;;3.55;100.00
29331;BME280;16331;52.528;13.342;2023-01-30T04:49:32;156709.84;;;3.58;100.00
29331;BME280;16331;52.528;13.342;2023-01-30T04:51:59;156671.66;;;3.44;100.00
29331;BME280;16331;52.528;13.342;2023-01-30T04:54:25;156673.03;;;3.45;100.00
29331;BME280;16331;52.528;13.342;2023-01-30T04:56:52;156643.06;;;3.34;100.00
29331;BME280;16331;52.528;13.342;2023-01-30T04:59:18;156645.75;;;3.35;100.00
29331;BME280;16331;52.528;13.342;2023-01-30T05:01:44;156634.88;;;3.31;100.00
29331;BME280;16331;52.528;13.342;2023-01-30T05:04:12;156615.78;;;3.24;100.00
29331;BME280;16331;52.528;13.342;2023-01-30T05:06:38;156604.91;;;3.20;100.00
29331;BME280;16331;52.528;13.342;2023-01-30T05:09:05;156670.31;;;3.44;100.00
29331;BME280;16331;52.528;13.342;2023-01-30T05:11:31;156637.59;;;3.32;100.00
29331;BME280;16331;52.528;13.342;2023-01-30T05:14:00;156604.91;;;3.20;100.00
29331;BME280;16331;52.528;13.342;2023-01-30T05:16:26;156591.28;;;3.15;100.00
29331;BME280;16331;52.528;13.342;2023-01-30T05:18:53;156588.59;;;3.14;100.00
29331;BME280;16331;52.528;13.342;2023-01-30T05:21:24;156583.13;;;3.12;100.00
29331;BME280;16331;52.528;13.342;2023-01-30T05:23:53;156588.59;;;3.14;100.00
29331;BME280;16331;52.528;13.342;2023-01-30T05:26:19;156594.00;;;3.16;100.00
29331;BME280;16331;52.528;13.342;2023-01-30T05:28:51;156572.19;;;3.08;100.00
29331;BME280;16331;52.528;13.342;2023-01-30T05:31:18;154235.06;;;3.13;100.00
29331;BME280;16331;52.528;13.342;2023-01-30T05:33:49;150532.09;;;3.12;100.00
29331;BME280;16331;52.528;13.342;2023-01-30T05:36:18;146975.81;;;3.12;100.00
29331;BME280;16331;52.528;13.342;2023-01-30T05:38:46;142737.81;;;3.22;100.00
29331;BME280;16331;52.528;13.342;2023-01-30T05:41:14;141310.31;;;3.19;100.00
29331;BME280;16331;52.528;13.342;2023-01-30T05:43:41;140243.25;;;3.18;100.00
29331;BME280;16331;52.528;13.342;2023-01-30T05:46:10;136720.69;;;3.28;100.00
29331;BME280;16331;52.528;13.342;2023-01-30T05:48:36;137053.72;;;3.19;100.00
29331;BME280;16331;52.528;13.342;2023-01-30T05:51:04;132485.09;;;3.35;100.00
29331;BME280;16331;52.528;13.342;2023-01-30T05:53:33;134209.47;;;3.15;100.00
29331;BME280;16331;52.528;13.342;2023-01-30T05:56:04;131013.97;;;3.11;100.00
29331;BME280;16331;52.528;13.342;2023-01-30T05:58:31;126434.50;;;3.19;100.00
29331;BME280;16331;52.528;13.342;2023-01-30T06:01:04;124681.88;;;3.25;100.00
29331;BME280;16331;52.528;13.342;2023-01-30T06:03:31;123263.56;;;3.23;100.00
29331;BME280;16331;52.528;13.342;2023-01-30T06:05:57;119402.97;;;3.33;100.00
29331;BME280;16331;52.528;13.342;2023-01-30T06:08:24;119391.50;;;3.28;100.00
29331;BME280;16331;52.528;13.342;2023-01-30T06:10:53;117984.75;;;3.30;100.00
29331;BME280;16331;52.528;13.342;2023-01-30T06:13:26;116228.00;;;3.33;100.00
29331;BME280;16331;52.528;13.342;2023-01-30T06:15:54;115183.75;;;3.39;100.00
29331;BME280;16331;52.528;13.342;2023-01-30T06:18:21;114494.97;;;3.47;100.00
29331;BME280;16331;52.528;13.342;2023-01-30T06:20:51;113463.63;;;3.60;100.00
29331;BME280;16331;52.528;13.342;2023-01-30T06:23:18;115554.34;;;3.48;100.00
29331;BME280;16331;52.528;13.342;2023-01-30T06:25:48;115549.31;;;3.46;100.00
29331;BME280;16331;52.528;13.342;2023-01-30T06:28:17;113447.75;;;3.52;100.00
29331;BME280;16331;52.528;13.342;2023-01-30T06:30:44;112746.13;;;3.54;100.00
29331;BME280;16331;52.528;13.342;2023-01-30T06:33:10;111004.63;;;3.64;100.00
29331;BME280;16331;52.528;13.342;2023-01-30T06:35:39;111365.56;;;3.68;100.00
29331;BME280;16331;52.528;13.342;2023-01-30T06:38:06;112419.44;;;3.67;100.00
29331;BME280;16331;52.528;13.342;2023-01-30T06:40:34;112086.72;;;3.77;100.00
29331;BME280;16331;52.528;13.342;2023-01-30T06:43:00;112789.53;;;3.76;100.00
29331;BME280;16331;52.528;13.342;2023-01-30T06:45:26;112449.94;;;3.82;100.00
29331;BME280;16331;52.528;13.342;2023-01-30T06:47:53;112462.72;;;3.89;100.00
29331;BME280;16331;52.528;13.342;2023-01-30T06:50:23;113881.75;;;3.93;100.00
29331;BME280;16331;52.528;13.342;2023-01-30T06:52:50;115652.34;;;3.97;100.00
29331;BME280;16331;52.528;13.342;2023-01-30T06:55:21;116011.25;;;4.00;100.00
29331;BME280;16331;52.528;13.342;2023-01-30T06:57:49;117093.50;;;4.11;100.00
29331;BME280;16331;52.528;13.342;2023-01-30T07:00:20;120985.53;;;4.14;100.00
29331;BME280;16331;52.528;13.342;2023-01-30T07:02:47;122041.78;;;4.12;100.00
29331;BME280;16331;52.528;13.342;2023-01-30T07:05:13;121695.69;;;4.16;100.00
29331;BME280;16331;52.528;13.342;2023-01-30T07:07:39;120634.19;;;4.15;100.00
29331;BME280;16331;52.528;13.342;2023-01-30T07:10:06;118889.28;;;4.26;100.00
29331;BME280;16331;52.528;13.342;2023-01-30T07:12:33;118178.63;;;4.24;100.00
29331;BME280;16331;52.528;13.342;2023-01-30T07:14:59;116070.00;;;4.29;100.00
29331;BME280;16331;52.528;13.342;2023-01-30T07:17:25;115363.00;;;4.28;100.00
29331;BME280;16331;52.528;13.342;2023-01-30T07:19:51;113950.41;;;4.28;100.00
29331;BME280;16331;52.528;13.342;2023-01-30T07:22:18;112204.38;;;4.37;100.00
29331;BME280;16331;52.528;13.342;2023-01-30T07:24:44;112224.97;;;4.47;100.00
29331;BME280;16331;52.528;13.342;2023-01-30T07:27:11;112217.13;;;4.43;100.00
29331;BME280;16331;52.528;13.342;2023-01-30T07:29:39;111516.59;;;4.46;100.00
29331;BME280;16331;52.528;13.342;2023-01-30T07:32:06;110458.72;;;4.46;100.00
29331;BME280;16331;52.528;13.342;2023-01-30T07:34:34;109054.41;;;4.49;100.00
29331;BME280;16331;52.528;13.342;2023-01-30T07:37:00;108005.69;;;4.54;100.00
29331;BME280;16331;52.528;13.342;2023-01-30T07:39:26;108019.84;;;4.61;100.00
29331;BME280;16331;52.528;13.342;2023-01-30T07:41:52;106987.09;;;4.74;100.00
29331;BME280;16331;52.528;13.342;2023-01-30T07:44:18;106639.41;;;4.77;100.00
29331;BME280;16331;52.528;13.342;2023-01-30T07:46:44;105918.03;;;4.68;100.00
29331;BME280;16331;52.528;13.342;2023-01-30T07:49:12;103101.19;;;4.68;100.00
29331;BME280;16331;52.528;13.342;2023-01-30T07:51:39;101353.38;;;4.74;100.00
29331;BME280;16331;52.528;13.342;2023-01-30T07:54:05;99242.25;;;4.74;100.00
29331;BME280;16331;52.528;13.342;2023-01-30T07:56:31;98898.47;;;4.78;100.00
29331;BME280;16331;52.528;13.342;2023-01-30T07:58:58;97137.50;;;4.76;100.00
29331;BME280;16331;52.528;13.342;2023-01-30T08:01:25;96799.72;;;4.84;100.00
29331;BME280;16331;52.528;13.342;2023-01-30T08:03:51;97477.81;;;4.70;100.00
29331;BME280;16331;52.528;13.342;2023-01-30T08:06:17;94340.63;;;4.84;100.00
29331;BME280;16331;52.528;13.342;2023-01-30T08:08:43;93299.56;;;4.92;100.00
29331;BME280;16331;52.528;13.342;2023-01-30T08:11:10;93293.03;;;4.88;100.00
29331;BME280;16331;52.528;13.342;2023-01-30T08:13:36;91900.28;;;4.95;100.00
29331;BME280;16331;52.528;13.342;2023-01-30T08:16:04;91897.84;;;4.93;100.00
29331;BME280;16331;52.528;13.342;2023-01-30T08:18:33;90842.69;;;4.92;100.00
29331;BME280;16331;52.528;13.342;2023-01-30T08:21:03;88756.16;;;5.03;100.00
29331;BME280;16331;52.528;13.342;2023-01-30T08:23:30;88399.25;;;4.99;100.00
29331;BME280;16331;52.528;13.342;2023-01-30T08:25:59;87701.84;;;5.02;100.00
29331;BME280;16331;52.528;13.342;2023-01-30T08:28:29;85962.94;;;5.11;100.00
29331;BME280;16331;52.528;13.342;2023-01-30T08:30:56;85283.84;;;5.25;100.00
29331;BME280;16331;52.528;13.342;2023-01-30T08:33:23;87047.50;;;5.32;100.00
29331;BME280;16331;52.528;13.342;2023-01-30T08:35:51;88783.50;;;5.21;100.00
29331;BME280;16331;52.528;13.342;2023-01-30T08:38:18;88788.19;;;5.24;100.00
29331;BME280;16331;52.528;13.342;2023-01-30T08:40:44;89476.56;;;5.15;100.00
29331;BME280;16331;52.528;13.342;2023-01-30T08:43:10;89117.88;;;5.10;100.00
29331;BME280;16331;52.528;13.342;2023-01-30T08:45:36;89111.59;;;5.06;100.00
29331;BME280;16331;52.528;13.342;2023-01-30T08:48:05;88079.59;;;5.19;100.00
29331;BME280;16331;52.528;13.342;2023-01-30T08:50:33;89834.53;;;5.20;100.00
29331;BME280;16331;52.528;13.342;2023-01-30T08:53:06;90529.28;;;5.15;100.00
29331;BME280;16331;52.528;13.342;2023-01-30T08:55:32;90552.34;;;5.30;100.00
29331;BME280;16331;52.528;13.342;2023-01-30T08:57:58;93014.69;;;5.32;100.00
29331;BME280;16331;52.528;13.342;2023-01-30T09:00:25;94073.72;;;5.35;100.00
29331;BME280;16331;52.528;13.342;2023-01-30T09:02:53;95137.41;;;5.41;100.00
29331;BME280;16331;52.528;13.342;2023-01-30T09:05:20;96568.53;;;5.55;100.00
29331;BME280;16331;52.528;13.342;2023-01-30T09:07:46;99735.41;;;5.55;100.00
29331;BME280;16331;52.528;13.342;2023-01-30T09:10:12;103262.06;;;5.57;100.00
29331;BME280;16331;52.528;13.342;2023-01-30T09:12:39;103259.31;;;5.55;100.00
29331;BME280;16331;52.528;13.342;2023-01-30T09:15:05;107503.00;;;5.61;100.00
29331;BME280;16331;52.528;13.342;2023-01-30T09:17:34;110650.03;;;5.45;100.00
29331;BME280;16331;52.528;13.342;2023-01-30T09:20:01;107157.53;;;5.65;100.00
29331;BME280;16331;52.528;13.342;2023-01-30T09:22:27;112470.34;;;5.73;100.00
29331;BME280;16331;52.528;13.342;2023-01-30T09:24:54;117094.66;;;5.85;100.00
29331;BME280;16331;52.528;13.342;2023-01-30T09:27:21;121683.38;;;5.77;100.00
29331;BME280;16331;52.528;13.342;2023-01-30T09:29:51;123819.47;;;5.81;100.00
29331;BME280;16331;52.528;13.342;2023-01-30T09:32:17;126311.03;;;5.85;100.00
29331;BME280;16331;52.528;13.342;2023-01-30T09:34:44;127723.41;;;5.81;100.00
29331;BME280;16331;52.528;13.342;2023-01-30T09:37:10;129876.19;;;5.91;100.00
29331;BME280;16331;52.528;13.342;2023-01-30T09:39:37;133414.31;;;5.83;100.00
29331;BME280;16331;52.528;13.342;2023-01-30T09:53:35;157423.59;;;6.21;100.00
29331;BME280;16331;52.528;13.342;2023-01-30T09:56:03;157429.00;;;6.23;100.00
29331;BME280;16331;52.528;13.342;2023-01-30T09:58:45;157448.16;;;6.30;100.00
29331;BME280;16331;52.528;13.342;2023-01-30T10:01:47;157450.88;;;6.31;100.00
29331;BME280;16331;52.528;13.342;2023-01-30T10:04:33;157497.38;;;6.48;100.00
29331;BME280;16331;52.528;13.342;2023-01-30T10:18:24;157590.28;;;6.82;100.00
29331;BME280;16331;52.528;13.342;2023-01-30T10:21:08;157532.91;;;6.61;100.00
29331;BME280;16331;52.528;13.342;2023-01-30T10:26:23;157650.47;;;7.04;100.00
29331;BME280;16331;52.528;13.342;2023-01-30T10:29:07;157675.06;;;7.13;100.00
29331;BME280;16331;52.528;13.342;2023-01-30T10:34:28;157623.13;;;6.94;100.00
29331;BME280;16331;52.528;13.342;2023-01-30T10:37:21;157579.38;;;6.78;100.00
29331;BME280;16331;52.528;13.342;2023-01-30T10:40:21;157606.72;;;6.88;100.00
29331;BME280;16331;52.528;13.342;2023-01-30T10:45:46;157562.97;;;6.72;100.00
29331;BME280;16331;52.528;13.342;2023-01-30T10:54:04;157610.81;;;6.89;100.00
29331;BME280;16331;52.528;13.342;2023-01-30T10:59:57;157542.44;;;6.64;100.00
29331;BME280;16331;52.528;13.342;2023-01-30T11:06:21;157620.41;;;6.93;100.00
29331;BME280;16331;52.528;13.342;2023-01-30T11:08:56;157591.66;;;6.82;100.00
29331;BME280;16331;52.528;13.342;2023-01-30T11:11:53;157591.66;;;6.82;100.00
29331;BME280;16331;52.528;13.342;2023-01-30T11:14:24;157621.72;;;6.93;100.00
29331;BME280;16331;52.528;13.342;2023-01-30T11:16:56;157606.72;;;6.88;100.00
29331;BME280;16331;52.528;13.342;2023-01-30T11:19:34;157610.81;;;6.89;100.00
29331;BME280;16331;52.528;13.342;2023-01-30T11:22:04;157691.47;;;7.19;100.00
29331;BME280;16331;52.528;13.342;2023-01-30T11:24:59;157721.56;;;7.30;100.00
29331;BME280;16331;52.528;13.342;2023-01-30T11:27:33;157746.22;;;7.39;100.00
29331;BME280;16331;52.528;13.342;2023-01-30T11:30:12;157675.06;;;7.13;100.00
29331;BME280;16331;52.528;13.342;2023-01-30T11:32:43;157747.53;;;7.39;100.00
29331;BME280;16331;52.528;13.342;2023-01-30T11:37:41;157718.84;;;7.29;100.00
29331;BME280;16331;52.528;13.342;2023-01-30T11:40:28;157721.56;;;7.30;100.00
29331;BME280;16331;52.528;13.342;2023-01-30T11:43:03;157672.34;;;7.12;100.00
29331;BME280;16331;52.528;13.342;2023-01-30T11:45:37;157670.97;;;7.11;100.00
29331;BME280;16331;52.528;13.342;2023-01-30T11:48:11;157590.28;;;6.82;100.00
29331;BME280;16331;52.528;13.342;2023-01-30T11:50:45;157485.06;;;6.43;100.00
29331;BME280;16331;52.528;13.342;2023-01-30T11:53:27;157323.88;;;5.84;100.00
29331;BME280;16331;52.528;13.342;2023-01-30T11:55:59;157244.59;;;5.55;100.00
29331;BME280;16331;52.528;13.342;2023-01-30T11:58:34;157194.03;;;5.36;100.00
29331;BME280;16331;52.528;13.342;2023-01-30T12:01:01;157153.13;;;5.21;100.00
29331;BME280;16331;52.528;13.342;2023-01-30T12:03:28;157138.09;;;5.16;100.00
29331;BME280;16331;52.528;13.342;2023-01-30T12:06:00;157087.59;;;4.97;100.00
29331;BME280;16331;52.528;13.342;2023-01-30T12:08:36;155992.41;;;4.85;100.00
29331;BME280;16331;52.528;13.342;2023-01-30T12:11:23;147049.63;;;4.80;100.00
29331;BME280;16331;52.528;13.342;2023-01-30T12:13:50;144219.22;;;4.88;100.00
29331;BME280;16331;52.528;13.342;2023-01-30T12:19:52;143242.91;;;5.25;100.00
29331;BME280;16331;52.528;13.342;2023-01-30T12:22:30;146985.47;;;5.95;100.00
29331;BME280;16331;52.528;13.342;2023-01-30T12:25:13;157419.47;;;6.19;100.00
29331;BME280;16331;52.528;13.342;2023-01-30T12:30:46;157702.44;;;7.23;100.00
29331;BME280;16331;52.528;13.342;2023-01-30T12:33:15;157765.31;;;7.46;100.00
29331;BME280;16331;52.528;13.342;2023-01-30T12:41:58;157625.84;;;6.95;100.00
29331;BME280;16331;52.528;13.342;2023-01-30T12:44:44;157814.59;;;7.64;100.00
29331;BME280;16331;52.528;13.342;2023-01-30T12:55:57;158236.38;;;9.19;100.00
29331;BME280;16331;52.528;13.342;2023-01-30T13:01:25;157828.28;;;7.69;100.00
29331;BME280;16331;52.528;13.342;2023-01-30T13:04:09;157822.81;;;7.67;100.00
29331;BME280;16331;52.528;13.342;2023-01-30T13:07:08;157803.69;;;7.60;100.00
29331;BME280;16331;52.528;13.342;2023-01-30T13:18:12;157677.78;;;7.14;100.00
29331;BME280;16331;52.528;13.342;2023-01-30T13:20:59;157650.47;;;7.04;100.00
29331;BME280;16331;52.528;13.342;2023-01-30T13:23:50;157664.16;;;7.09;100.00
29331;BME280;16331;52.528;13.342;2023-01-30T13:26:38;157676.47;;;7.13;100.00
29331;BME280;16331;52.528;13.342;2023-01-30T13:29:19;157688.75;;;7.18;100.00
29331;BME280;16331;52.528;13.342;2023-01-30T13:31:56;157695.56;;;7.20;100.00
29331;BME280;16331;52.528;13.342;2023-01-30T13:34:44;157683.28;;;7.16;100.00
29331;BME280;16331;52.528;13.342;2023-01-30T13:37:22;157681.88;;;7.15;100.00
29331;BME280;16331;52.528;13.342;2023-01-30T13:40:00;157720.22;;;7.29;100.00
29331;BME280;16331;52.528;13.342;2023-01-30T13:43:26;157649.09;;;7.03;100.00
29331;BME280;16331;52.528;13.342;2023-01-30T13:45:34;157467.31;;;6.37;100.00
29331;BME280;16331;52.528;13.342;2023-01-30T13:51:42;157348.44;;;5.93;100.00
29331;BME280;16331;52.528;13.342;2023-01-30T13:54:25;157316.94;;;5.81;100.00
29331;BME280;16331;52.528;13.342;2023-01-30T13:57:10;157273.25;;;5.65;100.00
29331;BME280;16331;52.528;13.342;2023-01-30T14:08:22;152846.25;;;5.03;100.00
29331;BME280;16331;52.528;13.342;2023-01-30T14:10:50;143147.00;;;4.87;100.00
29331;BME280;16331;52.528;13.342;2023-01-30T14:13:17;136734.81;;;4.83;100.00
29331;BME280;16331;52.528;13.342;2023-01-30T14:15:55;132114.84;;;4.82;100.00
29331;BME280;16331;52.528;13.342;2023-01-30T14:18:31;127516.66;;;4.88;100.00
29331;BME280;16331;52.528;13.342;2023-01-30T14:21:13;123640.47;;;4.98;100.00
29331;BME280;16331;52.528;13.342;2023-01-30T14:23:55;122243.13;;;5.07;100.00
29331;BME280;16331;52.528;13.342;2023-01-30T14:34:43;128618.53;;;5.05;100.00
29331;BME280;16331;52.528;13.342;2023-01-30T14:45:58;147485.53;;;5.11;100.00
29331;BME280;16331;52.528;13.342;2023-01-30T14:48:44;156135.75;;;5.08;100.00
29331;BME280;16331;52.528;13.342;2023-01-30T14:51:44;157106.69;;;5.04;100.00
29331;BME280;16331;52.528;13.342;2023-01-30T14:56:49;157097.16;;;5.01;100.00
29331;BME280;16331;52.528;13.342;2023-01-30T15:02:42;157052.13;;;4.84;100.00
29331;BME280;16331;52.528;13.342;2023-01-30T15:05:15;157068.47;;;4.90;100.00
29331;BME280;16331;52.528;13.342;2023-01-30T15:16:56;157120.34;;;5.09;100.00
29331;BME280;16331;52.528;13.342;2023-01-30T15:19:42;157153.13;;;5.21;100.00
29331;BME280;16331;52.528;13.342;2023-01-30T15:22:42;157134.00;;;5.14;100.00
29331;BME280;16331;52.528;13.342;2023-01-30T15:30:38;157150.34;;;5.20;100.00
29331;BME280;16331;52.528;13.342;2023-01-30T15:33:28;157151.75;;;5.21;100.00
29331;BME280;16331;52.528;13.342;2023-01-30T15:35:54;157174.97;;;5.29;100.00
29331;BME280;16331;52.528;13.342;2023-01-30T15:41:01;157159.91;;;5.24;100.00
29331;BME280;16331;52.528;13.342;2023-01-30T15:51:36;157177.66;;;5.30;100.00